Time;durP1;ratioP1;P1;durP2;ratioP2;P2;SDS_P1;SDS_P2;PMS_P1;PMS_P2;Temp;Humidity;BMP_temperature;BMP_pressure;BME280_temperature;BME280_humidity;BME280_pressure;Samples;Min_cycle;Max_cycle;Signal;HPM_P1;HPM_P2
2022/07/27 00:01:31;;;;;;;1.15;0.60;;;;;;;;;;1905095;74;26252;-85
2022/07/27 00:03:58;;;;;;;0.80;0.50;;;;;;;;;;1894725;74;26715;-84
2022/07/27 00:06:25;;;;;;;0.50;0.50;;;;;;;;;;1894433;74;26225;-84
2022/07/27 00:08:52;;;;;;;2.25;0.53;;;;;;;;;;1898787;74;26244;-85
2022/07/27 00:11:20;;;;;;;1.02;0.85;;;;;;;;;;1903697;74;26322;-85
2022/07/27 00:13:47;;;;;;;0.60;0.55;;;;;;;;;;1890189;75;26255;-86
2022/07/27 00:16:14;;;;;;;0.50;0.50;;;;;;;;;;1885989;74;26847;-85
2022/07/27 00:18:42;;;;;;;1.42;0.60;;;;;;;;;;1887968;75;26663;-85
2022/07/27 00:21:09;;;;;;;0.93;0.70;;;;;;;;;;1884019;76;26190;-85
2022/07/27 00:23:36;;;;;;;1.07;0.60;;;;;;;;;;1893589;75;26244;-85
2022/07/27 00:26:03;;;;;;;3.37;0.82;;;;;;;;;;1890115;75;26223;-86
2022/07/27 00:28:31;;;;;;;1.25;0.50;;;;;;;;;;1893525;75;26251;-85
2022/07/27 00:30:58;;;;;;;0.50;0.50;;;;;;;;;;1881087;75;26290;-85
2022/07/27 00:33:25;;;;;;;0.62;0.57;;;;;;;;;;1890444;74;27017;-83
2022/07/27 00:35:53;;;;;;;0.72;0.68;;;;;;;;;;1884390;76;26660;-84
2022/07/27 00:38:20;;;;;;;0.50;0.50;;;;;;;;;;1888318;75;26175;-84
2022/07/27 00:40:47;;;;;;;1.52;0.50;;;;;;;;;;1891182;74;26248;-84
2022/07/27 00:43:14;;;;;;;0.75;0.60;;;;;;;;;;1890481;75;26291;-84
2022/07/27 00:45:42;;;;;;;0.88;0.50;;;;;;;;;;1893988;74;26252;-84
2022/07/27 00:48:09;;;;;;;1.32;0.70;;;;;;;;;;1909628;74;26819;-85
2022/07/27 00:50:37;;;;;;;0.50;0.50;;;;;;;;;;1872256;75;26681;-85
2022/07/27 00:53:04;;;;;;;0.60;0.60;;;;;;;;;;1897924;74;26330;-84
2022/07/27 00:55:32;;;;;;;0.98;0.70;;;;;;;;;;1880407;74;26215;-85
2022/07/27 00:58:00;;;;;;;0.80;0.60;;;;;;;;;;1880419;75;26199;-84
2022/07/27 01:00:27;;;;;;;0.90;0.60;;;;;;;;;;1898065;75;26240;-84
2022/07/27 01:02:55;;;;;;;1.05;0.70;;;;;;;;;;1899574;75;26374;-84
2022/07/27 01:05:22;;;;;;;0.75;0.75;;;;;;;;;;1906393;74;26240;-84
2022/07/27 01:07:50;;;;;;;1.15;0.70;;;;;;;;;;1897936;74;26332;-84
2022/07/27 01:10:17;;;;;;;0.75;0.75;;;;;;;;;;1878488;74;26258;-84
2022/07/27 01:12:45;;;;;;;0.90;0.55;;;;;;;;;;1916023;74;26454;-84
2022/07/27 01:15:13;;;;;;;1.50;0.60;;;;;;;;;;1902781;74;26688;-85
2022/07/27 01:17:40;;;;;;;0.42;0.42;;;;;;;;;;1889021;75;26335;-83
2022/07/27 01:20:07;;;;;;;0.70;0.70;;;;;;;;;;1890423;75;26708;-85
2022/07/27 01:22:35;;;;;;;1.27;0.82;;;;;;;;;;1893329;75;26675;-85
2022/07/27 01:25:03;;;;;;;0.95;0.47;;;;;;;;;;1892093;75;26319;-85
2022/07/27 01:27:30;;;;;;;0.60;0.60;;;;;;;;;;1883314;74;26687;-84
2022/07/27 01:29:57;;;;;;;0.93;0.50;;;;;;;;;;1900042;74;26237;-84
2022/07/27 01:32:24;;;;;;;0.65;0.65;;;;;;;;;;1881685;75;26684;-84
2022/07/27 01:34:52;;;;;;;0.70;0.70;;;;;;;;;;1892002;74;26198;-84
2022/07/27 01:37:19;;;;;;;0.80;0.60;;;;;;;;;;1893691;75;26255;-84
2022/07/27 01:39:46;;;;;;;0.60;0.60;;;;;;;;;;1883411;74;26263;-84
2022/07/27 01:42:15;;;;;;;1.35;0.70;;;;;;;;;;1898990;74;26306;-85
2022/07/27 01:44:42;;;;;;;0.60;0.60;;;;;;;;;;1889700;74;26164;-85
2022/07/27 01:47:09;;;;;;;1.15;0.70;;;;;;;;;;1895115;75;26317;-85
2022/07/27 01:49:36;;;;;;;0.45;0.40;;;;;;;;;;1877602;75;26244;-85
2022/07/27 01:52:04;;;;;;;0.40;0.40;;;;;;;;;;1882060;74;26698;-85
2022/07/27 01:54:31;;;;;;;2.45;0.60;;;;;;;;;;1882146;74;26221;-85
2022/07/27 01:56:58;;;;;;;0.47;0.45;;;;;;;;;;1880096;75;26239;-85
2022/07/27 01:59:26;;;;;;;0.88;0.60;;;;;;;;;;1867066;75;26164;-85
2022/07/27 02:01:53;;;;;;;1.12;0.60;;;;;;;;;;1884561;74;26273;-85
2022/07/27 02:04:22;;;;;;;0.65;0.50;;;;;;;;;;1884333;75;26270;-83
2022/07/27 02:06:50;;;;;;;0.53;0.53;;;;;;;;;;1890585;74;26192;-85
2022/07/27 02:09:17;;;;;;;0.75;0.70;;;;;;;;;;1903896;74;26282;-85
2022/07/27 02:14:30;;;;;;;2.10;0.60;;;;;;;;;;1888375;75;26208;-84
2022/07/27 02:16:57;;;;;;;0.68;0.60;;;;;;;;;;1886596;76;26325;-85
2022/07/27 02:19:24;;;;;;;0.60;0.60;;;;;;;;;;1882890;75;26277;-85
2022/07/27 02:21:51;;;;;;;0.60;0.60;;;;;;;;;;1897058;74;26251;-85
2022/07/27 02:24:19;;;;;;;0.70;0.70;;;;;;;;;;1899416;74;26338;-84
2022/07/27 02:26:46;;;;;;;2.02;0.93;;;;;;;;;;1897333;74;26221;-84
2022/07/27 02:29:13;;;;;;;2.72;0.78;;;;;;;;;;1889724;74;26271;-84
2022/07/27 02:31:40;;;;;;;0.85;0.72;;;;;;;;;;1904351;75;26318;-84
2022/07/27 02:34:07;;;;;;;1.87;0.70;;;;;;;;;;1892997;74;26307;-84
2022/07/27 02:36:35;;;;;;;2.40;0.68;;;;;;;;;;1902079;75;26271;-85
2022/07/27 02:39:02;;;;;;;1.65;0.90;;;;;;;;;;1896966;74;26715;-85
2022/07/27 02:41:29;;;;;;;0.70;0.62;;;;;;;;;;1881056;75;26248;-85
2022/07/27 02:43:57;;;;;;;0.60;0.60;;;;;;;;;;1881489;75;26203;-85
2022/07/27 02:46:24;;;;;;;0.88;0.68;;;;;;;;;;1879856;75;26319;-85
2022/07/27 02:48:51;;;;;;;1.50;0.70;;;;;;;;;;1888937;74;26232;-85
2022/07/27 02:51:18;;;;;;;0.80;0.80;;;;;;;;;;1897827;74;26380;-85
2022/07/27 02:53:46;;;;;;;1.60;0.90;;;;;;;;;;1903367;74;26618;-85
2022/07/27 02:56:13;;;;;;;1.00;0.90;;;;;;;;;;1915658;74;26266;-85
2022/07/27 02:58:41;;;;;;;1.90;0.72;;;;;;;;;;1891848;75;26168;-85
2022/07/27 03:01:08;;;;;;;1.22;0.70;;;;;;;;;;1901869;74;26790;-85
2022/07/27 03:03:37;;;;;;;0.90;0.62;;;;;;;;;;1891937;74;26231;-84
2022/07/27 03:06:07;;;;;;;0.80;0.70;;;;;;;;;;1891454;75;26312;-85
2022/07/27 03:08:35;;;;;;;1.65;0.60;;;;;;;;;;1874360;75;26192;-85
2022/07/27 03:11:03;;;;;;;1.55;0.70;;;;;;;;;;1902490;75;26314;-84
2022/07/27 03:13:30;;;;;;;0.60;0.60;;;;;;;;;;1876975;75;26247;-84
2022/07/27 03:15:58;;;;;;;0.93;0.60;;;;;;;;;;1874680;75;26254;-84
2022/07/27 03:18:25;;;;;;;0.62;0.62;;;;;;;;;;1891178;75;26301;-84
2022/07/27 03:20:52;;;;;;;0.88;0.65;;;;;;;;;;1880268;75;26244;-84
2022/07/27 03:23:20;;;;;;;0.80;0.70;;;;;;;;;;1866864;75;26622;-84
2022/07/27 03:25:47;;;;;;;1.37;0.70;;;;;;;;;;1875431;74;27510;-84
2022/07/27 03:28:18;;;;;;;0.90;0.72;;;;;;;;;;1874866;75;26236;-84
2022/07/27 03:30:43;;;;;;;1.47;0.62;;;;;;;;;;1877839;74;26240;-84
2022/07/27 03:33:10;;;;;;;0.95;0.75;;;;;;;;;;1884816;75;26691;-84
2022/07/27 03:35:38;;;;;;;1.52;0.80;;;;;;;;;;1881186;75;26649;-84
2022/07/27 03:38:05;;;;;;;0.78;0.72;;;;;;;;;;1896375;74;26216;-84
2022/07/27 03:40:32;;;;;;;0.85;0.80;;;;;;;;;;1874990;76;26196;-84
2022/07/27 03:43:00;;;;;;;1.85;0.60;;;;;;;;;;1901989;75;26239;-84
2022/07/27 03:45:27;;;;;;;1.70;0.68;;;;;;;;;;1886447;76;26684;-85
2022/07/27 03:47:54;;;;;;;1.02;0.57;;;;;;;;;;1884171;75;26223;-84
2022/07/27 03:50:22;;;;;;;1.17;0.65;;;;;;;;;;1885486;75;26346;-84
2022/07/27 03:52:50;;;;;;;1.62;0.57;;;;;;;;;;1886371;75;26202;-84
2022/07/27 03:55:18;;;;;;;0.80;0.70;;;;;;;;;;1890687;74;26774;-85
2022/07/27 03:57:46;;;;;;;1.65;0.78;;;;;;;;;;1870093;75;26221;-84
2022/07/27 04:00:14;;;;;;;1.22;0.65;;;;;;;;;;1894437;75;26282;-84
2022/07/27 04:02:41;;;;;;;1.20;0.70;;;;;;;;;;1900743;75;26252;-84
2022/07/27 04:05:09;;;;;;;0.95;0.80;;;;;;;;;;1888795;74;26236;-85
2022/07/27 04:07:36;;;;;;;1.20;0.90;;;;;;;;;;1880594;75;26239;-85
2022/07/27 04:10:04;;;;;;;1.45;0.80;;;;;;;;;;1884619;75;26321;-84
2022/07/27 04:12:31;;;;;;;0.95;0.70;;;;;;;;;;1884281;75;26227;-84
2022/07/27 04:14:58;;;;;;;1.60;0.90;;;;;;;;;;1891801;74;26238;-85
2022/07/27 04:17:25;;;;;;;0.75;0.60;;;;;;;;;;1896582;74;26254;-85
2022/07/27 04:19:53;;;;;;;1.45;0.82;;;;;;;;;;1892659;74;26273;-83
2022/07/27 04:22:20;;;;;;;1.17;0.75;;;;;;;;;;1876164;75;26251;-85
2022/07/27 04:24:47;;;;;;;2.02;0.80;;;;;;;;;;1897385;74;26329;-84
2022/07/27 04:27:15;;;;;;;1.00;0.90;;;;;;;;;;1887518;75;26258;-85
2022/07/27 04:29:42;;;;;;;1.27;0.80;;;;;;;;;;1890811;74;26157;-85
2022/07/27 04:32:09;;;;;;;2.25;0.78;;;;;;;;;;1884493;74;26260;-84
2022/07/27 04:34:36;;;;;;;1.80;1.05;;;;;;;;;;1884473;74;26204;-85
2022/07/27 04:37:04;;;;;;;0.82;0.62;;;;;;;;;;1882060;75;26290;-84
2022/07/27 04:39:32;;;;;;;2.22;0.90;;;;;;;;;;1880412;74;26257;-83
2022/07/27 04:41:59;;;;;;;1.45;1.00;;;;;;;;;;1884944;75;26198;-84
2022/07/27 04:44:26;;;;;;;1.42;1.00;;;;;;;;;;1882791;74;26285;-84
2022/07/27 04:46:53;;;;;;;1.62;0.80;;;;;;;;;;1880681;74;26267;-84
2022/07/27 04:49:21;;;;;;;1.15;0.80;;;;;;;;;;1890322;73;26187;-84
2022/07/27 04:51:48;;;;;;;2.15;0.85;;;;;;;;;;1889954;74;26264;-85
2022/07/27 04:54:15;;;;;;;0.88;0.80;;;;;;;;;;1882792;74;26250;-85
2022/07/27 04:56:42;;;;;;;1.42;0.90;;;;;;;;;;1874901;76;26324;-85
2022/07/27 04:59:10;;;;;;;1.70;0.93;;;;;;;;;;1879824;75;26643;-83
2022/07/27 05:01:37;;;;;;;1.92;0.80;;;;;;;;;;1884690;76;26325;-84
2022/07/27 05:04:05;;;;;;;1.85;0.80;;;;;;;;;;1884485;76;26199;-84
2022/07/27 05:06:32;;;;;;;1.80;1.00;;;;;;;;;;1885698;75;26211;-84
2022/07/27 05:08:59;;;;;;;1.20;0.80;;;;;;;;;;1878107;74;26662;-84
2022/07/27 05:11:27;;;;;;;1.90;1.00;;;;;;;;;;1872920;75;26730;-84
2022/07/27 05:13:54;;;;;;;1.47;0.88;;;;;;;;;;1883194;75;26345;-85
2022/07/27 05:16:21;;;;;;;1.47;0.80;;;;;;;;;;1875111;76;26206;-84
2022/07/27 05:18:48;;;;;;;0.85;0.75;;;;;;;;;;1881479;76;26243;-83
2022/07/27 05:21:16;;;;;;;1.22;0.80;;;;;;;;;;1889018;74;26282;-85
2022/07/27 05:23:43;;;;;;;1.77;1.10;;;;;;;;;;1898268;74;26240;-84
2022/07/27 05:26:11;;;;;;;1.87;0.90;;;;;;;;;;1888035;75;26256;-84
2022/07/27 05:28:38;;;;;;;0.98;0.70;;;;;;;;;;1886193;75;26673;-85
2022/07/27 05:31:05;;;;;;;1.02;0.70;;;;;;;;;;1881832;74;26278;-84
2022/07/27 05:33:33;;;;;;;1.17;0.80;;;;;;;;;;1886670;75;26235;-85
2022/07/27 05:36:00;;;;;;;1.42;0.80;;;;;;;;;;1887674;75;26268;-85
2022/07/27 05:38:27;;;;;;;1.25;0.80;;;;;;;;;;1890122;73;26802;-84
2022/07/27 05:40:54;;;;;;;1.42;0.85;;;;;;;;;;1886591;76;26236;-85
2022/07/27 05:43:22;;;;;;;1.37;0.95;;;;;;;;;;1881673;75;26313;-85
2022/07/27 05:45:49;;;;;;;2.47;0.90;;;;;;;;;;1889629;75;26329;-83
2022/07/27 05:48:17;;;;;;;1.12;0.90;;;;;;;;;;1889325;75;26297;-85
2022/07/27 05:50:44;;;;;;;1.95;0.88;;;;;;;;;;1887358;75;26726;-84
2022/07/27 05:53:11;;;;;;;0.82;0.82;;;;;;;;;;1884186;74;26208;-82
2022/07/27 05:55:39;;;;;;;1.25;0.80;;;;;;;;;;1902933;74;26233;-84
2022/07/27 05:58:06;;;;;;;1.32;0.80;;;;;;;;;;1886326;74;26270;-84
2022/07/27 06:00:33;;;;;;;1.77;1.02;;;;;;;;;;1885702;74;26203;-84
2022/07/27 06:03:00;;;;;;;0.88;0.80;;;;;;;;;;1887796;74;26301;-84
2022/07/27 06:05:28;;;;;;;2.83;0.85;;;;;;;;;;1886583;75;26294;-84
2022/07/27 06:07:57;;;;;;;0.98;0.90;;;;;;;;;;1883861;75;26231;-83
2022/07/27 06:10:26;;;;;;;3.70;1.00;;;;;;;;;;1889188;74;26181;-84
2022/07/27 06:12:53;;;;;;;1.30;1.00;;;;;;;;;;1886794;75;26226;-84
2022/07/27 06:15:21;;;;;;;1.32;0.80;;;;;;;;;;1884525;74;26278;-84
2022/07/27 06:17:51;;;;;;;1.62;1.00;;;;;;;;;;1888059;76;26274;-85
2022/07/27 06:20:18;;;;;;;1.82;1.00;;;;;;;;;;1888536;75;26618;-85
2022/07/27 06:22:46;;;;;;;1.57;0.78;;;;;;;;;;1891683;74;26629;-84
2022/07/27 06:25:14;;;;;;;1.12;0.82;;;;;;;;;;1889845;74;26274;-84
2022/07/27 06:27:41;;;;;;;1.92;1.00;;;;;;;;;;1897441;74;26232;-85
2022/07/27 06:30:08;;;;;;;2.12;1.02;;;;;;;;;;1895383;74;26372;-84
2022/07/27 06:32:36;;;;;;;1.15;0.72;;;;;;;;;;1893563;75;26239;-84
2022/07/27 06:35:03;;;;;;;1.47;0.70;;;;;;;;;;1888209;74;26303;-84
2022/07/27 06:37:30;;;;;;;1.25;0.72;;;;;;;;;;1894768;75;26232;-84
2022/07/27 06:39:59;;;;;;;1.22;0.98;;;;;;;;;;1893494;75;26669;-84
2022/07/27 06:42:27;;;;;;;1.07;0.80;;;;;;;;;;1883944;74;26330;-85
2022/07/27 06:44:55;;;;;;;1.20;0.70;;;;;;;;;;1880625;75;26188;-84
2022/07/27 06:47:22;;;;;;;2.47;0.90;;;;;;;;;;1873806;74;26243;-84
2022/07/27 06:49:49;;;;;;;1.32;0.75;;;;;;;;;;1880072;75;26284;-85
2022/07/27 06:52:17;;;;;;;3.45;1.00;;;;;;;;;;1896372;74;26241;-85
2022/07/27 06:54:44;;;;;;;1.45;0.98;;;;;;;;;;1891728;74;26336;-84
2022/07/27 06:57:11;;;;;;;1.42;1.00;;;;;;;;;;1899092;74;26265;-85
2022/07/27 06:59:38;;;;;;;3.77;1.10;;;;;;;;;;1886146;74;26239;-84
2022/07/27 07:02:06;;;;;;;1.65;0.90;;;;;;;;;;1892530;75;26220;-83
2022/07/27 07:04:33;;;;;;;2.87;1.10;;;;;;;;;;1879926;75;26338;-85
2022/07/27 07:07:00;;;;;;;1.20;1.00;;;;;;;;;;1890075;75;26286;-86
2022/07/27 07:09:28;;;;;;;3.27;1.00;;;;;;;;;;1890333;76;26313;-84
2022/07/27 07:11:56;;;;;;;2.50;1.00;;;;;;;;;;1882342;75;26254;-86
2022/07/27 07:14:24;;;;;;;2.05;0.90;;;;;;;;;;1907117;74;26297;-85
2022/07/27 07:16:52;;;;;;;1.50;0.88;;;;;;;;;;1891563;75;26854;-84
2022/07/27 07:19:20;;;;;;;2.17;0.90;;;;;;;;;;1895454;74;26183;-84
2022/07/27 07:21:47;;;;;;;1.42;0.80;;;;;;;;;;1884995;74;26221;-84
2022/07/27 07:24:14;;;;;;;1.07;0.95;;;;;;;;;;1885413;76;26661;-83
2022/07/27 07:26:42;;;;;;;2.02;0.80;;;;;;;;;;1887855;74;26212;-84
2022/07/27 07:29:09;;;;;;;1.60;1.00;;;;;;;;;;1884371;75;26357;-84
2022/07/27 07:31:36;;;;;;;1.07;0.78;;;;;;;;;;1890641;74;26257;-84
2022/07/27 07:34:04;;;;;;;1.25;0.70;;;;;;;;;;1890562;74;26188;-85
2022/07/27 07:36:31;;;;;;;2.10;0.80;;;;;;;;;;1876224;74;26182;-84
2022/07/27 07:38:59;;;;;;;1.27;1.10;;;;;;;;;;1886326;74;26663;-84
2022/07/27 07:41:26;;;;;;;0.70;0.70;;;;;;;;;;1891952;74;26714;-84
2022/07/27 07:43:54;;;;;;;1.32;0.90;;;;;;;;;;1898994;74;26317;-85
2022/07/27 07:46:21;;;;;;;1.95;1.00;;;;;;;;;;1884128;74;26223;-85
2022/07/27 07:48:48;;;;;;;0.70;0.70;;;;;;;;;;1877888;75;26307;-85
2022/07/27 07:51:16;;;;;;;2.45;1.00;;;;;;;;;;1877766;74;26344;-85
2022/07/27 07:53:43;;;;;;;1.27;0.98;;;;;;;;;;1881301;75;26214;-84
2022/07/27 07:56:11;;;;;;;1.12;0.72;;;;;;;;;;1878622;75;26308;-84
2022/07/27 07:58:38;;;;;;;1.65;0.90;;;;;;;;;;1888096;75;26223;-84
2022/07/27 08:01:05;;;;;;;1.67;0.93;;;;;;;;;;1883474;75;26248;-84
2022/07/27 08:03:32;;;;;;;1.82;0.93;;;;;;;;;;1872888;75;26223;-84
2022/07/27 08:06:00;;;;;;;1.15;1.00;;;;;;;;;;1881109;74;26232;-84
2022/07/27 08:08:28;;;;;;;0.82;0.80;;;;;;;;;;1890584;75;26795;-85
2022/07/27 08:10:56;;;;;;;1.60;0.70;;;;;;;;;;1895840;75;26322;-84
2022/07/27 08:13:23;;;;;;;1.62;0.80;;;;;;;;;;1879588;74;26207;-85
2022/07/27 08:15:51;;;;;;;2.08;0.95;;;;;;;;;;1886904;74;26376;-86
2022/07/27 08:18:19;;;;;;;2.92;0.70;;;;;;;;;;1878456;75;26224;-85
2022/07/27 08:20:46;;;;;;;2.58;0.80;;;;;;;;;;1886003;74;26215;-85
2022/07/27 08:23:13;;;;;;;1.25;0.88;;;;;;;;;;1870374;75;26257;-85
2022/07/27 08:25:41;;;;;;;1.98;0.70;;;;;;;;;;1876581;75;26292;-87
2022/07/27 08:28:09;;;;;;;4.15;0.70;;;;;;;;;;1886565;74;26200;-85
2022/07/27 08:30:36;;;;;;;10.90;1.50;;;;;;;;;;1884591;75;26271;-86
2022/07/27 08:33:04;;;;;;;5.37;1.07;;;;;;;;;;1891799;75;26240;-87
2022/07/27 08:35:32;;;;;;;7.70;0.88;;;;;;;;;;1884955;75;26249;-86
2022/07/27 08:38:00;;;;;;;8.78;1.27;;;;;;;;;;1878442;75;26192;-85
2022/07/27 08:40:27;;;;;;;1.80;0.82;;;;;;;;;;1895107;75;26232;-85
2022/07/27 08:42:54;;;;;;;7.25;1.00;;;;;;;;;;1886747;76;26444;-84
2022/07/27 08:45:23;;;;;;;6.40;1.00;;;;;;;;;;1882514;75;26242;-83
2022/07/27 08:47:50;;;;;;;5.28;1.10;;;;;;;;;;1883529;74;26667;-84
2022/07/27 08:50:24;;;;;;;4.83;0.70;;;;;;;;;;1894927;74;26235;-84
2022/07/27 08:52:56;;;;;;;3.47;0.90;;;;;;;;;;1887745;74;26266;-85
2022/07/27 08:55:24;;;;;;;2.50;0.80;;;;;;;;;;1891182;74;26181;-83
2022/07/27 08:57:51;;;;;;;1.42;0.82;;;;;;;;;;1889229;74;26320;-84
2022/07/27 09:00:19;;;;;;;3.17;0.80;;;;;;;;;;1879399;75;26757;-84
2022/07/27 09:02:46;;;;;;;3.90;0.78;;;;;;;;;;1874550;75;26198;-84
2022/07/27 09:05:14;;;;;;;2.22;0.90;;;;;;;;;;1880483;75;26272;-83
2022/07/27 09:07:41;;;;;;;2.65;0.80;;;;;;;;;;1882842;75;26671;-83
2022/07/27 09:10:09;;;;;;;2.08;0.72;;;;;;;;;;1881704;75;26236;-84
2022/07/27 09:12:36;;;;;;;1.62;0.80;;;;;;;;;;1877739;75;26264;-83
2022/07/27 09:15:05;;;;;;;2.27;0.80;;;;;;;;;;1882013;75;26277;-84
2022/07/27 09:17:32;;;;;;;3.15;0.80;;;;;;;;;;1875639;75;26213;-84
2022/07/27 09:20:01;;;;;;;2.47;1.02;;;;;;;;;;1881240;75;26199;-86
2022/07/27 09:22:36;;;;;;;4.87;0.80;;;;;;;;;;1881578;75;26349;-85
2022/07/27 09:25:03;;;;;;;2.40;0.70;;;;;;;;;;1883401;75;26247;-88
2022/07/27 09:27:30;;;;;;;1.05;0.50;;;;;;;;;;1889410;75;26606;-84
2022/07/27 09:30:06;;;;;;;1.85;0.75;;;;;;;;;;1899869;74;26277;-89
2022/07/27 09:32:33;;;;;;;6.03;0.72;;;;;;;;;;1899444;74;26203;-84
2022/07/27 09:35:20;;;;;;;1.75;0.50;;;;;;;;;;1885164;74;26671;-84
2022/07/27 09:37:48;;;;;;;2.42;0.80;;;;;;;;;;1889781;74;26824;-84
2022/07/27 09:40:16;;;;;;;1.80;0.70;;;;;;;;;;1873362;75;26780;-83
2022/07/27 09:42:43;;;;;;;1.82;0.60;;;;;;;;;;1874772;75;26257;-83
2022/07/27 09:45:30;;;;;;;3.80;0.60;;;;;;;;;;1877624;75;26704;-83
2022/07/27 09:47:58;;;;;;;0.50;0.50;;;;;;;;;;1884046;74;26215;-83
2022/07/27 09:50:26;;;;;;;3.67;0.60;;;;;;;;;;1864310;74;26292;-85
2022/07/27 09:52:53;;;;;;;2.15;0.50;;;;;;;;;;1869568;76;26281;-87
2022/07/27 09:55:21;;;;;;;0.53;0.50;;;;;;;;;;1879608;74;26356;-85
2022/07/27 09:57:56;;;;;;;0.93;0.70;;;;;;;;;;1877856;75;26365;-85
2022/07/27 10:00:25;;;;;;;4.33;0.62;;;;;;;;;;1887655;75;26751;-86
2022/07/27 10:02:52;;;;;;;0.82;0.50;;;;;;;;;;1884146;74;26250;-84
2022/07/27 10:05:21;;;;;;;1.12;0.70;;;;;;;;;;1876174;75;26243;-85
2022/07/27 10:07:49;;;;;;;2.08;0.53;;;;;;;;;;1885542;75;26304;-85
2022/07/27 10:10:16;;;;;;;1.42;0.40;;;;;;;;;;1899968;74;26348;-85
2022/07/27 10:12:44;;;;;;;3.05;0.53;;;;;;;;;;1890325;75;26718;-85
2022/07/27 10:15:11;;;;;;;0.78;0.47;;;;;;;;;;1880242;74;26356;-85
2022/07/27 10:17:40;;;;;;;1.17;0.57;;;;;;;;;;1892119;75;26333;-85
2022/07/27 10:20:09;;;;;;;0.53;0.40;;;;;;;;;;1874896;74;26194;-86
2022/07/27 10:22:52;;;;;;;0.30;0.30;;;;;;;;;;1896385;73;26188;-83
2022/07/27 10:25:20;;;;;;;0.70;0.50;;;;;;;;;;1882585;74;26211;-86
2022/07/27 10:27:48;;;;;;;1.27;0.50;;;;;;;;;;1896212;74;26305;-85
2022/07/27 10:30:18;;;;;;;2.58;0.30;;;;;;;;;;1883264;75;26216;-85
2022/07/27 10:32:46;;;;;;;0.50;0.50;;;;;;;;;;1881530;74;26265;-87
2022/07/27 10:35:20;;;;;;;1.10;0.42;;;;;;;;;;1901204;74;26708;-85
2022/07/27 10:37:49;;;;;;;3.85;0.37;;;;;;;;;;1887784;74;26300;-86
2022/07/27 10:40:33;;;;;;;0.40;0.40;;;;;;;;;;1891395;74;26926;-85
2022/07/27 10:43:07;;;;;;;0.40;0.40;;;;;;;;;;1886266;74;26686;-85
2022/07/27 10:45:39;;;;;;;0.42;0.40;;;;;;;;;;1887564;74;26236;-83
2022/07/27 10:48:07;;;;;;;0.90;0.28;;;;;;;;;;1876281;75;26320;-85
2022/07/27 10:50:34;;;;;;;0.98;0.30;;;;;;;;;;1881186;74;26274;-84
2022/07/27 10:53:03;;;;;;;1.30;0.30;;;;;;;;;;1890868;75;26246;-85
2022/07/27 10:55:34;;;;;;;0.25;0.13;;;;;;;;;;1889656;75;26298;-87
2022/07/27 10:58:02;;;;;;;1.37;0.30;;;;;;;;;;1891673;75;26351;-86
2022/07/27 11:00:48;;;;;;;3.27;0.40;;;;;;;;;;1889540;73;26206;-84
2022/07/27 11:03:21;;;;;;;1.50;0.37;;;;;;;;;;1887026;73;26645;-82
2022/07/27 11:06:02;;;;;;;3.30;0.50;;;;;;;;;;1892796;74;26233;-83
2022/07/27 11:08:31;;;;;;;2.80;0.30;;;;;;;;;;1889566;75;26196;-83
2022/07/27 11:10:59;;;;;;;0.80;0.35;;;;;;;;;;1873969;74;26340;-83
2022/07/27 11:13:27;;;;;;;0.20;0.20;;;;;;;;;;1880277;74;26782;-82
2022/07/27 11:15:56;;;;;;;1.75;0.40;;;;;;;;;;1896672;75;26279;-86
2022/07/27 11:18:34;;;;;;;1.85;0.20;;;;;;;;;;1886189;74;26238;-84
2022/07/27 11:21:21;;;;;;;0.10;0.10;;;;;;;;;;1885054;74;26739;-83
2022/07/27 11:23:55;;;;;;;1.65;0.20;;;;;;;;;;1884518;75;26851;-84
2022/07/27 11:26:24;;;;;;;0.25;0.25;;;;;;;;;;1878635;75;26298;-84
2022/07/27 11:28:51;;;;;;;0.70;0.20;;;;;;;;;;1898891;73;26230;-85
2022/07/27 11:31:19;;;;;;;0.88;0.20;;;;;;;;;;1885823;73;26708;-84
2022/07/27 11:33:51;;;;;;;0.08;0.08;;;;;;;;;;1875254;75;26248;-88
2022/07/27 11:36:19;;;;;;;8.83;0.25;;;;;;;;;;1888024;74;26278;-85
2022/07/27 11:38:51;;;;;;;2.10;0.20;;;;;;;;;;1896749;75;26270;-85
2022/07/27 11:41:28;;;;;;;0.10;0.10;;;;;;;;;;1879801;74;26328;-85
2022/07/27 11:44:00;;;;;;;0.35;0.35;;;;;;;;;;1881094;74;26776;-85
2022/07/27 11:46:28;;;;;;;0.35;0.20;;;;;;;;;;1879042;74;26319;-84
2022/07/27 11:48:57;;;;;;;0.65;0.30;;;;;;;;;;1873428;74;26667;-84
2022/07/27 11:51:24;;;;;;;0.13;0.13;;;;;;;;;;1881726;74;26284;-85
2022/07/27 11:53:56;;;;;;;0.30;0.30;;;;;;;;;;1894729;74;26239;-84
2022/07/27 11:56:24;;;;;;;0.17;0.17;;;;;;;;;;1897544;74;26313;-84
2022/07/27 11:58:58;;;;;;;0.10;0.10;;;;;;;;;;1886708;74;27242;-84
2022/07/27 12:01:36;;;;;;;0.42;0.20;;;;;;;;;;1894233;74;26789;-84
2022/07/27 12:04:04;;;;;;;0.28;0.28;;;;;;;;;;1896842;74;26342;-84
2022/07/27 12:06:33;;;;;;;0.23;0.20;;;;;;;;;;1887341;75;27009;-85
2022/07/27 12:09:01;;;;;;;0.20;0.20;;;;;;;;;;1875407;75;26821;-84
2022/07/27 12:11:29;;;;;;;0.33;0.25;;;;;;;;;;1900468;74;26609;-84
2022/07/27 12:13:57;;;;;;;0.10;0.10;;;;;;;;;;1890923;75;26336;-84
2022/07/27 12:16:25;;;;;;;0.10;0.10;;;;;;;;;;1873819;74;26232;-84
2022/07/27 12:18:52;;;;;;;0.17;0.17;;;;;;;;;;1871140;74;26304;-84
2022/07/27 12:21:19;;;;;;;0.10;0.10;;;;;;;;;;1889579;74;26321;-84
2022/07/27 12:23:50;;;;;;;0.55;0.30;;;;;;;;;;1875099;73;26264;-84
2022/07/27 12:26:19;;;;;;;0.20;0.20;;;;;;;;;;1885535;74;26666;-84
2022/07/27 12:28:48;;;;;;;0.20;0.20;;;;;;;;;;1885224;74;26297;-84
2022/07/27 12:31:16;;;;;;;0.13;0.13;;;;;;;;;;1870636;75;27045;-84
2022/07/27 12:33:44;;;;;;;0.23;0.13;;;;;;;;;;1884296;75;26254;-84
2022/07/27 12:36:11;;;;;;;0.35;0.25;;;;;;;;;;1883669;74;26223;-84
2022/07/27 12:38:39;;;;;;;0.10;0.10;;;;;;;;;;1893600;73;26301;-84
2022/07/27 12:41:07;;;;;;;0.30;0.30;;;;;;;;;;1885142;73;26339;-84
2022/07/27 12:43:34;;;;;;;0.20;0.20;;;;;;;;;;1891928;75;26239;-83
2022/07/27 12:46:03;;;;;;;0.17;0.15;;;;;;;;;;1882844;74;26746;-83
2022/07/27 12:48:31;;;;;;;0.15;0.15;;;;;;;;;;1891353;74;26297;-85
2022/07/27 12:51:03;;;;;;;0.10;0.10;;;;;;;;;;1879927;75;26222;-85
2022/07/27 12:53:31;;;;;;;0.53;0.10;;;;;;;;;;1870824;75;26317;-85
2022/07/27 12:55:59;;;;;;;0.30;0.10;;;;;;;;;;1878335;75;26322;-82
2022/07/27 12:58:27;;;;;;;0.82;0.23;;;;;;;;;;1882368;74;26878;-84
2022/07/27 13:00:54;;;;;;;1.75;0.20;;;;;;;;;;1879683;74;26236;-85
2022/07/27 13:03:22;;;;;;;1.40;0.30;;;;;;;;;;1889286;74;26267;-84
2022/07/27 13:05:49;;;;;;;0.75;0.30;;;;;;;;;;1889925;75;26320;-85
2022/07/27 13:08:16;;;;;;;1.05;0.47;;;;;;;;;;1878565;74;26669;-82
2022/07/27 13:10:44;;;;;;;1.27;0.20;;;;;;;;;;1883970;74;27031;-82
2022/07/27 13:13:11;;;;;;;0.37;0.37;;;;;;;;;;1882672;74;26350;-83
2022/07/27 13:15:38;;;;;;;0.72;0.30;;;;;;;;;;1882039;74;26274;-83
2022/07/27 13:18:06;;;;;;;1.30;0.28;;;;;;;;;;1889753;74;26300;-85
2022/07/27 13:20:33;;;;;;;0.33;0.30;;;;;;;;;;1889853;74;26235;-84
2022/07/27 13:23:00;;;;;;;0.10;0.10;;;;;;;;;;1898029;74;26321;-84
2022/07/27 13:25:28;;;;;;;0.53;0.10;;;;;;;;;;1889729;74;26280;-84
2022/07/27 13:27:55;;;;;;;0.20;0.20;;;;;;;;;;1889341;74;26270;-86
2022/07/27 13:30:23;;;;;;;0.20;0.20;;;;;;;;;;1892064;73;26299;-87
2022/07/27 13:32:50;;;;;;;0.75;0.20;;;;;;;;;;1894780;74;26260;-85
2022/07/27 13:35:18;;;;;;;0.10;0.10;;;;;;;;;;1886029;74;26961;-87
2022/07/27 13:37:45;;;;;;;0.42;0.20;;;;;;;;;;1882481;75;26867;-84
2022/07/27 13:40:13;;;;;;;1.22;0.20;;;;;;;;;;1894836;75;26379;-85
2022/07/27 13:42:40;;;;;;;0.42;0.17;;;;;;;;;;1888295;74;26231;-84
2022/07/27 13:45:08;;;;;;;1.77;0.20;;;;;;;;;;1882418;74;26264;-84
2022/07/27 13:47:35;;;;;;;1.55;0.20;;;;;;;;;;1891946;74;26317;-90
2022/07/27 13:50:02;;;;;;;2.92;0.50;;;;;;;;;;1905085;75;26342;-85
2022/07/27 13:52:30;;;;;;;2.45;0.30;;;;;;;;;;1901370;74;26330;-87
2022/07/27 13:54:57;;;;;;;2.67;0.30;;;;;;;;;;1899199;74;26303;-85
2022/07/27 13:57:24;;;;;;;1.07;0.30;;;;;;;;;;1886306;74;26287;-84
2022/07/27 13:59:52;;;;;;;0.62;0.20;;;;;;;;;;1886435;75;26284;-84
2022/07/27 14:02:19;;;;;;;4.85;0.30;;;;;;;;;;1886867;74;26562;-85
2022/07/27 14:04:47;;;;;;;3.12;0.90;;;;;;;;;;1895318;74;26341;-85
2022/07/27 14:07:14;;;;;;;0.95;0.20;;;;;;;;;;1885199;75;26345;-84
2022/07/27 14:12:27;;;;;;;1.65;0.20;;;;;;;;;;1886639;75;26255;-84
2022/07/27 14:14:54;;;;;;;8.75;0.40;;;;;;;;;;1895908;74;26833;-84
2022/07/27 14:17:21;;;;;;;0.57;0.20;;;;;;;;;;1897202;74;26240;-84
2022/07/27 14:19:49;;;;;;;0.95;0.20;;;;;;;;;;1877891;75;26292;-84
2022/07/27 14:22:16;;;;;;;1.65;0.10;;;;;;;;;;1881967;75;26263;-85
2022/07/27 14:24:43;;;;;;;0.65;0.40;;;;;;;;;;1901799;74;26334;-84
2022/07/27 14:27:10;;;;;;;0.10;0.10;;;;;;;;;;1903524;74;26330;-85
2022/07/27 14:29:38;;;;;;;1.10;0.10;;;;;;;;;;1896329;74;26260;-84
2022/07/27 14:32:05;;;;;;;0.78;0.10;;;;;;;;;;1901659;75;26797;-83
2022/07/27 14:34:33;;;;;;;4.90;0.30;;;;;;;;;;1903918;74;26816;-83
2022/07/27 14:37:00;;;;;;;1.00;0.15;;;;;;;;;;1891594;74;26326;-84
2022/07/27 14:39:27;;;;;;;2.75;0.20;;;;;;;;;;1884351;75;26385;-84
2022/07/27 14:41:55;;;;;;;0.20;0.20;;;;;;;;;;1905978;75;26750;-84
2022/07/27 14:44:22;;;;;;;0.53;0.20;;;;;;;;;;1908467;73;26279;-84
2022/07/27 14:46:49;;;;;;;0.23;0.20;;;;;;;;;;1896661;74;26244;-86
2022/07/27 14:49:20;;;;;;;0.20;0.20;;;;;;;;;;1884268;74;26240;-85
2022/07/27 14:51:45;;;;;;;0.10;0.10;;;;;;;;;;1897619;75;26711;-84
2022/07/27 14:54:13;;;;;;;1.17;0.10;;;;;;;;;;1881278;75;26305;-85